Time;durP1;ratioP1;P1;durP2;ratioP2;P2;SDS_P1;SDS_P2;PMS_P1;PMS_P2;Temp;Humidity;BMP_temperature;BMP_pressure;BME280_temperature;BME280_humidity;BME280_pressure;Samples;Min_cycle;Max_cycle;Signal;HPM_P1;HPM_P2
2023/02/10 00:00:47;;;;;;;14.57;5.00;;;15.60;58.30;;;;;;4225668;27;20058;-70
2023/02/10 00:03:27;;;;;;;10.37;5.30;;;15.70;58.20;;;;;;4226368;27;20288;-71
2023/02/10 00:06:10;;;;;;;16.38;5.93;;;15.70;58.20;;;;;;4202984;28;20159;-70
2023/02/10 00:08:54;;;;;;;9.23;5.45;;;15.70;58.20;;;;;;4208090;28;20047;-70
2023/02/10 00:14:32;;;;;;;15.10;5.57;;;15.80;58.00;;;;;;4225209;27;20619;-71
2023/02/10 00:17:17;;;;;;;14.85;5.70;;;15.80;58.10;;;;;;4224913;27;20123;-71
2023/02/10 00:19:57;;;;;;;13.50;5.40;;;15.70;58.10;;;;;;4221815;27;20050;-72
2023/02/10 00:22:38;;;;;;;14.20;5.22;;;15.70;58.90;;;;;;4222913;27;20051;-70
2023/02/10 00:25:20;;;;;;;13.05;5.72;;;15.70;58.30;;;;;;4224108;28;20062;-71
2023/02/10 00:28:01;;;;;;;11.93;5.55;;;15.60;58.20;;;;;;4226196;28;20085;-71
2023/02/10 00:30:42;;;;;;;13.32;5.13;;;15.60;58.50;;;;;;4224892;28;20505;-71
2023/02/10 00:33:23;;;;;;;15.57;4.65;;;15.60;58.60;;;;;;4222657;28;20070;-71
2023/02/10 00:36:05;;;;;;;12.57;4.90;;;15.60;58.70;;;;;;4201260;28;20055;-71
2023/02/10 00:38:46;;;;;;;15.15;5.53;;;15.60;58.70;;;;;;4221881;28;20173;-70
2023/02/10 00:41:28;;;;;;;10.30;5.07;;;15.50;58.70;;;;;;4226608;27;20124;-71
2023/02/10 00:44:09;;;;;;;15.60;5.32;;;15.50;58.90;;;;;;4225727;27;20055;-70
2023/02/10 00:46:50;;;;;;;15.20;5.13;;;15.40;58.90;;;;;;4226018;27;20050;-71
2023/02/10 00:49:31;;;;;;;19.27;5.05;;;15.30;59.00;;;;;;4225890;28;20722;-71
2023/02/10 00:52:12;;;;;;;10.82;4.75;;;15.30;59.30;;;;;;4224885;28;20192;-71
2023/02/10 00:54:53;;;;;;;15.77;4.95;;;15.20;59.60;;;;;;4225545;28;20132;-71
2023/02/10 00:57:35;;;;;;;15.68;4.90;;;15.30;59.80;;;;;;4226070;28;20050;-71
2023/02/10 01:00:16;;;;;;;15.77;4.88;;;15.40;59.60;;;;;;4208179;28;20085;-70
2023/02/10 01:02:58;;;;;;;10.68;4.55;;;15.50;59.30;;;;;;4225907;28;20444;-71
2023/02/10 01:05:40;;;;;;;11.15;4.53;;;15.60;59.00;;;;;;4216591;28;20050;-71
2023/02/10 01:08:21;;;;;;;13.77;4.97;;;15.70;58.70;;;;;;4224083;28;20058;-70
2023/02/10 01:11:04;;;;;;;10.65;4.07;;;15.80;58.50;;;;;;4225994;28;20410;-71
2023/02/10 01:13:46;;;;;;;13.68;4.90;;;15.80;58.30;;;;;;4209302;28;20059;-70
2023/02/10 01:16:27;;;;;;;10.00;4.40;;;15.80;58.20;;;;;;4207573;28;20865;-71
2023/02/10 01:19:08;;;;;;;11.95;4.75;;;15.80;58.30;;;;;;4203833;28;20174;-70
2023/02/10 01:21:49;;;;;;;13.75;4.63;;;15.70;58.30;;;;;;4221205;28;20529;-71
2023/02/10 01:24:30;;;;;;;12.30;4.47;;;15.70;58.50;;;;;;4224844;28;20509;-70
2023/02/10 01:27:11;;;;;;;10.98;4.93;;;15.60;58.70;;;;;;4224390;28;20280;-70
2023/02/10 01:29:54;;;;;;;17.55;4.78;;;15.50;59.00;;;;;;4225492;28;20205;-70
2023/02/10 01:32:35;;;;;;;10.65;4.07;;;15.40;59.20;;;;;;4225811;28;20055;-71
2023/02/10 01:35:16;;;;;;;9.15;4.35;;;15.30;59.40;;;;;;4228404;27;20177;-71
2023/02/10 01:37:58;;;;;;;12.35;4.40;;;15.40;59.50;;;;;;4227700;27;20152;-71
2023/02/10 01:40:38;;;;;;;10.73;5.03;;;15.40;59.40;;;;;;4229235;27;20046;-71
2023/02/10 01:43:20;;;;;;;13.40;4.55;;;15.40;59.50;;;;;;4228880;27;20280;-71
2023/02/10 01:46:03;;;;;;;15.68;4.88;;;15.50;59.50;;;;;;4228495;27;20054;-71
2023/02/10 01:48:44;;;;;;;14.90;4.80;;;15.50;59.30;;;;;;4227577;28;20140;-71
2023/02/10 01:51:31;;;;;;;10.02;4.03;;;15.50;59.20;;;;;;4227282;28;20039;-71
2023/02/10 01:54:15;;;;;;;9.07;4.07;;;15.50;59.10;;;;;;4227373;27;20132;-72
2023/02/10 01:56:56;;;;;;;9.85;3.95;;;15.50;59.10;;;;;;4210487;28;20062;-71
2023/02/10 01:59:39;;;;;;;14.80;4.13;;;15.50;59.00;;;;;;4219937;27;20406;-71
2023/02/10 02:02:22;;;;;;;18.10;4.70;;;15.50;59.00;;;;;;4228377;27;20058;-72
2023/02/10 02:05:07;;;;;;;15.02;4.50;;;15.50;59.10;;;;;;4224420;27;20059;-72
2023/02/10 02:07:48;;;;;;;12.57;4.32;;;15.50;59.30;;;;;;4210384;28;20454;-72
2023/02/10 02:10:51;;;;;;;13.60;3.72;;;15.50;59.30;;;;;;4210553;28;20050;-72
2023/02/10 02:13:48;;;;;;;12.85;4.13;;;15.60;59.00;;;;;;4210039;28;20616;-71
2023/02/10 02:16:39;;;;;;;7.45;3.35;;;15.70;58.90;;;;;;4211635;28;20540;-71
2023/02/10 02:19:36;;;;;;;;;;;15.80;59.40;;;;;;4224377;27;20059;-71
2023/02/10 02:22:39;;;;;;;15.27;4.15;;;15.90;58.60;;;;;;4238213;27;19927;-71
2023/02/10 02:25:36;;;;;;;10.60;3.92;;;15.90;58.40;;;;;;4227443;27;20051;-71
2023/02/10 02:28:31;;;;;;;11.25;3.35;;;15.80;58.30;;;;;;4227330;27;20413;-61
2023/02/10 02:31:45;;;;;;;13.00;4.28;;;15.80;58.60;;;;;;4227518;27;20504;-61
2023/02/10 02:34:34;;;;;;;12.25;4.05;;;15.60;58.70;;;;;;4211283;28;20051;-61
2023/02/10 02:37:19;;;;;;;10.27;3.20;;;15.60;59.20;;;;;;4210053;28;20544;-62
2023/02/10 02:40:01;;;;;;;10.30;3.40;;;15.60;59.20;;;;;;4222211;27;20181;-61
2023/02/10 02:42:42;;;;;;;11.68;3.95;;;15.80;59.00;;;;;;4226957;28;20603;-61
2023/02/10 02:45:33;;;;;;;11.27;3.75;;;15.90;58.70;;;;;;4211047;28;20046;-61
2023/02/10 02:48:34;;;;;;;13.55;3.80;;;16.00;58.30;;;;;;4208325;28;20051;-62
2023/02/10 02:51:26;;;;;;;8.48;3.08;;;16.00;58.10;;;;;;4209954;28;20175;-62
2023/02/10 02:54:20;;;;;;;9.90;3.57;;;16.20;58.10;;;;;;4210136;28;20071;-62
2023/02/10 02:57:09;;;;;;;12.98;4.03;;;16.20;57.80;;;;;;4208663;28;20047;-62
2023/02/10 02:59:54;;;;;;;7.72;3.17;;;16.30;57.60;;;;;;4218116;28;20050;-61
2023/02/10 03:02:36;;;;;;;13.95;4.18;;;16.30;57.50;;;;;;4226293;28;20112;-61
2023/02/10 03:05:20;;;;;;;12.27;3.70;;;16.30;57.40;;;;;;4206489;28;20121;-61
2023/02/10 03:08:01;;;;;;;10.13;3.08;;;16.30;57.40;;;;;;4192761;28;20234;-62
2023/02/10 03:10:43;;;;;;;10.63;3.90;;;16.30;57.50;;;;;;4210539;28;20070;-61
2023/02/10 03:13:24;;;;;;;12.40;3.60;;;16.20;58.60;;;;;;4210409;28;20051;-61
2023/02/10 03:16:06;;;;;;;11.30;3.90;;;16.30;57.90;;;;;;4210971;28;20065;-61
2023/02/10 03:18:47;;;;;;;11.38;3.53;;;16.30;57.70;;;;;;4225813;27;20077;-61
2023/02/10 03:21:30;;;;;;;14.32;3.03;;;16.40;57.50;;;;;;4225867;28;20050;-61
2023/02/10 03:24:10;;;;;;;10.77;3.58;;;16.40;57.40;;;;;;4227119;27;20063;-61
2023/02/10 03:26:51;;;;;;;11.98;3.47;;;16.40;57.40;;;;;;4227355;27;20123;-61
2023/02/10 03:29:32;;;;;;;9.63;3.75;;;16.40;58.10;;;;;;4218384;27;20051;-61
2023/02/10 03:32:14;;;;;;;11.65;3.33;;;16.50;57.30;;;;;;4210306;28;20178;-62
2023/02/10 03:34:55;;;;;;;10.80;3.00;;;16.50;57.20;;;;;;4208702;28;20541;-61
2023/02/10 03:37:37;;;;;;;11.43;3.25;;;16.40;57.20;;;;;;4209876;28;20075;-61
2023/02/10 03:40:18;;;;;;;10.07;3.50;;;16.40;57.30;;;;;;4192867;28;20082;-61
2023/02/10 03:42:59;;;;;;;10.77;3.22;;;16.20;57.50;;;;;;4208493;28;20120;-61
2023/02/10 03:45:40;;;;;;;12.15;3.28;;;16.20;58.00;;;;;;4209844;27;20050;-71
2023/02/10 03:48:26;;;;;;;8.68;3.03;;;16.10;58.20;;;;;;4226797;27;20062;-71
2023/02/10 03:51:08;;;;;;;6.95;3.20;;;16.10;58.30;;;;;;4226953;28;20051;-72
2023/02/10 03:53:50;;;;;;;9.02;3.25;;;16.20;58.10;;;;;;4226510;28;20502;-72
2023/02/10 03:56:31;;;;;;;10.85;3.50;;;16.20;58.70;;;;;;4226853;27;20131;-71
2023/02/10 03:59:12;;;;;;;11.30;3.90;;;16.20;57.90;;;;;;4218035;27;20173;-71
2023/02/10 04:01:53;;;;;;;9.50;3.53;;;16.20;57.90;;;;;;4223646;27;20128;-71
2023/02/10 04:04:34;;;;;;;9.70;3.20;;;16.10;58.60;;;;;;4226643;27;20189;-71
2023/02/10 04:07:15;;;;;;;13.05;3.80;;;16.10;58.20;;;;;;4226394;27;20055;-71
2023/02/10 04:09:57;;;;;;;10.40;3.38;;;16.00;58.50;;;;;;4226145;27;20053;-71
2023/02/10 04:12:38;;;;;;;15.25;3.85;;;16.00;58.60;;;;;;4225107;28;20189;-61
2023/02/10 04:15:19;;;;;;;14.30;3.55;;;16.00;59.10;;;;;;4226093;28;20058;-61
2023/02/10 04:18:00;;;;;;;12.15;3.28;;;16.10;58.50;;;;;;4225989;27;20112;-61
2023/02/10 04:20:41;;;;;;;10.98;3.55;;;16.00;58.40;;;;;;4226455;28;20070;-61
2023/02/10 04:23:22;;;;;;;11.85;4.20;;;16.00;58.50;;;;;;4224211;28;20058;-61
2023/02/10 04:26:04;;;;;;;10.77;3.58;;;16.00;58.60;;;;;;4225778;27;20049;-61
2023/02/10 04:28:45;;;;;;;16.50;4.05;;;15.90;58.70;;;;;;4224919;27;20184;-61
2023/02/10 04:31:26;;;;;;;9.53;3.67;;;15.80;59.00;;;;;;4225957;27;20051;-61
2023/02/10 04:34:07;;;;;;;11.10;3.75;;;15.80;59.20;;;;;;4226417;27;20165;-61
2023/02/10 04:36:48;;;;;;;9.55;3.20;;;15.80;59.20;;;;;;4226132;27;20054;-62
2023/02/10 04:39:29;;;;;;;11.40;3.80;;;16.00;59.10;;;;;;4210941;28;20113;-62
2023/02/10 04:42:11;;;;;;;8.57;3.93;;;16.10;58.70;;;;;;4226148;27;20058;-61
2023/02/10 04:44:53;;;;;;;10.48;3.67;;;16.10;58.30;;;;;;4225452;28;20056;-62
2023/02/10 04:47:34;;;;;;;10.38;3.60;;;16.20;58.20;;;;;;4225575;28;20070;-61
2023/02/10 04:50:15;;;;;;;8.88;4.13;;;16.20;58.20;;;;;;4209444;28;20047;-62
2023/02/10 04:52:56;;;;;;;11.50;2.90;;;16.20;58.20;;;;;;4208163;28;20560;-61
2023/02/10 04:55:37;;;;;;;12.27;3.83;;;16.30;58.10;;;;;;4225889;28;20054;-61
2023/02/10 04:58:21;;;;;;;14.73;4.80;;;16.30;58.10;;;;;;4207866;28;20054;-61
2023/02/10 05:01:02;;;;;;;13.77;4.47;;;16.30;58.10;;;;;;4207953;28;20113;-61
2023/02/10 05:03:43;;;;;;;10.93;4.35;;;16.20;58.10;;;;;;4209247;28;20410;-61
2023/02/10 05:06:24;;;;;;;6.82;3.60;;;16.20;58.20;;;;;;4208954;28;20078;-61
2023/02/10 05:09:05;;;;;;;11.43;3.88;;;16.10;58.30;;;;;;4211190;28;20498;-61
2023/02/10 05:11:46;;;;;;;9.80;3.60;;;15.90;58.50;;;;;;4208557;28;20047;-62
2023/02/10 05:14:29;;;;;;;11.93;3.88;;;15.90;58.80;;;;;;4219021;28;20039;-61
2023/02/10 05:17:10;;;;;;;11.45;3.83;;;16.00;58.90;;;;;;4225660;28;20401;-62
2023/02/10 05:19:51;;;;;;;12.13;4.00;;;16.10;58.70;;;;;;4225892;28;20042;-61
2023/02/10 05:22:31;;;;;;;8.57;3.95;;;16.10;58.50;;;;;;4225231;28;20570;-61
2023/02/10 05:25:13;;;;;;;11.57;4.38;;;16.20;58.40;;;;;;4224955;28;20405;-62
2023/02/10 05:27:53;;;;;;;9.82;3.65;;;16.20;58.20;;;;;;4210227;28;20059;-62
2023/02/10 05:30:36;;;;;;;8.57;3.58;;;16.20;58.10;;;;;;4223470;28;20496;-61
2023/02/10 05:33:17;;;;;;;9.15;4.07;;;16.10;58.20;;;;;;4225390;28;20184;-61
2023/02/10 05:35:58;;;;;;;12.48;5.07;;;16.20;58.30;;;;;;4224952;28;20055;-61
2023/02/10 05:39:22;;;;;;;14.70;4.93;;;16.20;58.40;;;;;;4225374;28;20071;-61
2023/02/10 05:41:39;;;;;;;8.70;4.10;;;16.10;58.30;;;;;;4214881;28;20289;-62
2023/02/10 05:44:21;;;;;;;12.35;3.78;;;16.10;58.40;;;;;;4225030;28;20050;-61
2023/02/10 05:47:03;;;;;;;11.25;4.22;;;16.10;58.50;;;;;;4208446;28;20063;-61
2023/02/10 05:49:44;;;;;;;11.65;4.13;;;16.00;58.50;;;;;;4208686;28;20540;-62
2023/02/10 05:52:25;;;;;;;13.73;4.72;;;15.90;58.70;;;;;;4207901;28;20059;-61
2023/02/10 05:55:06;;;;;;;10.55;4.20;;;15.90;58.80;;;;;;4208016;28;20047;-61
2023/02/10 05:57:48;;;;;;;10.63;3.97;;;15.80;59.10;;;;;;4208769;28;20193;-61
2023/02/10 06:00:28;;;;;;;11.45;4.47;;;15.80;59.30;;;;;;4209214;28;20047;-61
2023/02/10 06:03:11;;;;;;;12.85;4.80;;;15.70;59.40;;;;;;4225369;28;20051;-62
2023/02/10 06:05:51;;;;;;;11.20;3.80;;;15.70;59.70;;;;;;4210067;28;20055;-61
2023/02/10 06:08:33;;;;;;;13.43;4.22;;;15.80;59.70;;;;;;4223536;28;20053;-61
2023/02/10 06:11:14;;;;;;;;;;;15.90;59.40;;;;;;4225521;28;20112;-61
2023/02/10 06:13:55;;;;;;;11.27;4.35;;;16.00;59.80;;;;;;4225135;28;20388;-61
2023/02/10 06:16:36;;;;;;;11.27;4.90;;;16.10;58.80;;;;;;4225112;28;20055;-61
2023/02/10 06:19:18;;;;;;;12.10;5.13;;;16.20;58.60;;;;;;4208135;28;20059;-60
2023/02/10 06:22:00;;;;;;;10.60;4.72;;;16.20;58.50;;;;;;4218836;28;20101;-60
2023/02/10 06:24:42;;;;;;;8.52;4.95;;;16.30;58.30;;;;;;4227775;28;20169;-61
2023/02/10 06:27:23;;;;;;;9.65;4.78;;;16.30;58.20;;;;;;4228047;28;20054;-61
2023/02/10 06:30:04;;;;;;;11.90;4.50;;;16.30;58.20;;;;;;4226410;27;20511;-60
2023/02/10 06:32:45;;;;;;;11.43;4.82;;;16.40;58.10;;;;;;4228403;27;20053;-60
2023/02/10 06:35:27;;;;;;;8.85;4.63;;;16.40;58.00;;;;;;4227996;27;20039;-61
2023/02/10 06:38:08;;;;;;;8.60;4.25;;;16.40;58.00;;;;;;4227885;27;20050;-61
2023/02/10 06:40:49;;;;;;;14.73;5.15;;;16.40;58.00;;;;;;4209081;28;20641;-61
2023/02/10 06:43:30;;;;;;;7.35;4.75;;;16.40;58.00;;;;;;4209709;28;20051;-61
2023/02/10 06:46:12;;;;;;;10.57;4.30;;;16.30;58.20;;;;;;4211059;28;20181;-61
2023/02/10 06:48:54;;;;;;;11.73;5.05;;;16.30;58.30;;;;;;4211104;28;20054;-61
2023/02/10 06:51:36;;;;;;;11.82;5.03;;;16.20;58.40;;;;;;4217306;27;20051;-62
2023/02/10 06:54:17;;;;;;;14.68;4.95;;;16.00;58.70;;;;;;4196740;28;20075;-62
2023/02/10 06:56:58;;;;;;;9.18;4.38;;;15.90;59.10;;;;;;4210523;28;20512;-60
2023/02/10 06:59:39;;;;;;;14.00;5.07;;;15.90;59.60;;;;;;4210678;28;20066;-61
2023/02/10 07:02:20;;;;;;;14.63;5.13;;;15.90;59.90;;;;;;4210685;28;20451;-63
2023/02/10 07:05:02;;;;;;;21.90;5.68;;;16.00;60.50;;;;;;4210126;28;20157;-62
2023/02/10 07:07:44;;;;;;;11.43;4.35;;;16.10;59.30;;;;;;4226768;27;20062;-63
2023/02/10 07:10:26;;;;;;;12.25;5.43;;;16.20;59.10;;;;;;4226532;27;20055;-62
2023/02/10 07:13:07;;;;;;;12.98;5.03;;;16.30;59.10;;;;;;4217533;27;20069;-62
2023/02/10 07:15:48;;;;;;;10.75;4.93;;;16.40;58.70;;;;;;4227410;27;20519;-62
2023/02/10 07:18:30;;;;;;;;;;;16.50;58.40;;;;;;4227441;28;20051;-63
2023/02/10 07:21:11;;;;;;;12.60;5.40;;;16.50;58.20;;;;;;4210454;28;20378;-62
2023/02/10 07:23:53;;;;;;;13.60;5.57;;;16.50;58.10;;;;;;4200338;28;20490;-62
2023/02/10 07:26:34;;;;;;;14.35;5.90;;;16.50;58.10;;;;;;4200350;28;20054;-71
2023/02/10 07:29:15;;;;;;;9.82;5.25;;;16.50;57.90;;;;;;4223711;27;20062;-71
2023/02/10 07:31:57;;;;;;;10.73;5.07;;;16.50;57.60;;;;;;4227113;27;20216;-71
2023/02/10 07:34:40;;;;;;;13.65;5.28;;;16.50;57.70;;;;;;4216103;27;20095;-71
2023/02/10 07:37:20;;;;;;;15.82;5.60;;;16.50;57.50;;;;;;4210770;28;20092;-71
2023/02/10 07:40:02;;;;;;;9.07;4.78;;;16.50;57.30;;;;;;4216426;28;20047;-70
2023/02/10 07:42:43;;;;;;;12.23;5.07;;;16.50;57.30;;;;;;4226943;27;20646;-70
2023/02/10 07:45:38;;;;;;;10.20;4.88;;;16.40;57.10;;;;;;4225218;28;20472;-71
2023/02/10 07:48:20;;;;;;;11.63;5.32;;;16.40;57.20;;;;;;4226667;28;20616;-71
2023/02/10 07:51:00;;;;;;;11.57;5.00;;;16.30;57.50;;;;;;4209875;28;20101;-70
2023/02/10 07:53:42;;;;;;;9.18;5.40;;;16.40;57.60;;;;;;4209856;28;20047;-69
2023/02/10 07:56:24;;;;;;;;;;;16.40;57.50;;;;;;4210773;28;20050;-70
2023/02/10 07:59:05;;;;;;;12.70;4.85;;;16.40;57.50;;;;;;4209705;28;19931;-70
2023/02/10 08:01:48;;;;;;;11.57;5.60;;;16.40;57.40;;;;;;4223347;27;20123;-69
2023/02/10 08:04:31;;;;;;;13.32;5.53;;;16.40;57.30;;;;;;4209870;28;20623;-69
2023/02/10 08:07:12;;;;;;;12.85;5.38;;;16.30;57.20;;;;;;4209739;28;20497;-70
2023/02/10 08:09:53;;;;;;;14.55;5.80;;;16.20;57.30;;;;;;4209709;28;20078;-70
2023/02/10 08:12:35;;;;;;;13.27;4.93;;;16.10;57.50;;;;;;4226470;27;20050;-70
2023/02/10 08:15:17;;;;;;;12.18;5.00;;;16.00;57.80;;;;;;4226187;28;20435;-70
2023/02/10 08:17:59;;;;;;;11.52;4.75;;;15.90;58.10;;;;;;4226453;27;20097;-70
2023/02/10 08:20:40;;;;;;;;;;;15.80;58.20;;;;;;4224378;27;20513;-70
2023/02/10 08:23:21;;;;;;;15.55;5.68;;;15.80;59.00;;;;;;4209466;28;19930;-71
2023/02/10 08:26:04;;;;;;;13.02;5.07;;;15.80;58.20;;;;;;4209243;28;20702;-70
2023/02/10 08:28:46;;;;;;;9.43;5.53;;;15.70;58.20;;;;;;4208915;28;20105;-71
2023/02/10 08:31:28;;;;;;;12.40;5.35;;;15.80;58.10;;;;;;4209233;28;20063;-71
2023/02/10 08:34:14;;;;;;;;;;;15.80;57.80;;;;;;4224974;27;20062;-72
2023/02/10 08:36:55;;;;;;;9.57;5.03;;;15.90;57.60;;;;;;4226315;27;20424;-71
2023/02/10 08:39:36;;;;;;;10.45;5.32;;;15.90;57.40;;;;;;4210601;28;20043;-71
2023/02/10 08:42:17;;;;;;;11.70;5.40;;;16.00;57.30;;;;;;4225044;28;20066;-71
2023/02/10 08:45:00;;;;;;;13.25;4.93;;;16.10;58.00;;;;;;4225348;27;20054;-71
2023/02/10 08:47:41;;;;;;;19.55;6.78;;;16.20;57.20;;;;;;4225742;27;20054;-70
2023/02/10 08:50:22;;;;;;;8.70;5.57;;;16.30;57.10;;;;;;4225521;28;20069;-66
2023/02/10 08:53:03;;;;;;;12.32;4.97;;;16.30;57.10;;;;;;4219299;28;20132;-68
2023/02/10 08:55:44;;;;;;;14.40;5.80;;;16.40;57.20;;;;;;4207761;28;20047;-67
2023/02/10 08:58:25;;;;;;;16.90;6.50;;;16.40;57.20;;;;;;4211677;28;20078;-63
2023/02/10 09:01:11;;;;;;;15.40;5.97;;;16.40;57.20;;;;;;4225773;28;20055;-63
2023/02/10 09:03:54;;;;;;;10.02;5.90;;;16.40;57.30;;;;;;4225827;27;20074;-63
2023/02/10 09:06:40;;;;;;;12.98;6.38;;;16.50;57.20;;;;;;4224765;28;20055;-64
2023/02/10 09:09:24;;;;;;;12.68;6.03;;;16.50;57.00;;;;;;4225788;28;20071;-63
2023/02/10 09:12:05;;;;;;;9.30;5.40;;;16.60;56.90;;;;;;4225523;27;20050;-63
2023/02/10 09:14:47;;;;;;;12.70;5.40;;;16.60;56.80;;;;;;4225796;28;20038;-62
2023/02/10 09:17:29;;;;;;;12.50;7.32;;;16.60;56.70;;;;;;4225267;28;20043;-63
2023/02/10 09:20:11;;;;;;;12.57;6.88;;;16.60;56.70;;;;;;4225646;28;20050;-63
2023/02/10 09:22:52;;;;;;;15.07;7.25;;;16.60;56.80;;;;;;4221665;28;20050;-63
2023/02/10 09:25:33;;;;;;;13.48;6.47;;;16.50;56.90;;;;;;4225187;28;20055;-63
2023/02/10 09:28:14;;;;;;;9.80;6.57;;;16.50;57.00;;;;;;4223808;28;20120;-62
2023/02/10 09:30:55;;;;;;;12.20;5.82;;;16.40;57.10;;;;;;4207578;28;20063;-63
2023/02/10 09:33:37;;;;;;;14.80;5.63;;;16.30;57.40;;;;;;4209005;28;20067;-62
2023/02/10 09:36:20;;;;;;;10.60;5.65;;;16.20;57.60;;;;;;4207374;28;20055;-62
2023/02/10 09:39:01;;;;;;;10.13;5.10;;;16.20;57.80;;;;;;4218661;28;20181;-63
2023/02/10 09:41:58;;;;;;;14.77;5.75;;;16.30;57.80;;;;;;4225588;28;20215;-63
2023/02/10 09:44:45;;;;;;;13.15;6.05;;;16.30;57.70;;;;;;4224594;28;20150;-62
2023/02/10 09:47:41;;;;;;;14.45;5.88;;;16.30;57.70;;;;;;4224059;28;20539;-64
2023/02/10 09:50:51;;;;;;;11.65;5.70;;;16.50;57.60;;;;;;4218609;28;20055;-62
2023/02/10 09:53:32;;;;;;;12.25;5.57;;;16.50;57.40;;;;;;4200970;28;20080;-61
2023/02/10 09:56:18;;;;;;;11.48;5.15;;;16.60;57.20;;;;;;4206716;28;20062;-62
2023/02/10 09:59:00;;;;;;;13.30;5.50;;;16.70;58.10;;;;;;4221726;28;20184;-63
2023/02/10 10:01:46;;;;;;;12.80;5.88;;;16.70;57.30;;;;;;4228939;27;20397;-63
2023/02/10 10:04:30;;;;;;;13.10;5.75;;;16.70;57.20;;;;;;4227805;27;20059;-62
2023/02/10 10:07:22;;;;;;;12.43;5.88;;;16.80;57.40;;;;;;4228319;27;20599;-63
2023/02/10 10:10:09;;;;;;;12.60;6.00;;;16.80;57.30;;;;;;4226111;28;20185;-64
2023/02/10 10:12:50;;;;;;;11.00;5.43;;;16.90;57.20;;;;;;4218594;28;20401;-64
2023/02/10 10:15:42;;;;;;;11.52;5.53;;;17.00;57.00;;;;;;4218627;27;20185;-64
2023/02/10 10:18:26;;;;;;;;;;;17.00;56.70;;;;;;4228080;28;20118;-64
2023/02/10 10:21:16;;;;;;;11.73;6.57;;;16.90;57.50;;;;;;4228387;27;19926;-63
2023/02/10 10:24:13;;;;;;;11.52;6.30;;;16.90;57.00;;;;;;4224707;27;20046;-64
2023/02/10 10:27:06;;;;;;;11.15;6.00;;;16.90;57.20;;;;;;4227726;27;20065;-63
2023/02/10 10:29:53;;;;;;;18.30;6.63;;;16.80;57.60;;;;;;4227562;27;20087;-63
2023/02/10 10:32:42;;;;;;;12.77;7.15;;;16.70;57.80;;;;;;4227977;27;20046;-63
2023/02/10 10:35:29;;;;;;;18.60;6.85;;;16.70;58.10;;;;;;4220424;27;20185;-64
2023/02/10 10:38:14;;;;;;;14.77;7.22;;;16.60;58.40;;;;;;4223215;28;20051;-63
2023/02/10 10:41:00;;;;;;;14.85;7.63;;;16.60;58.40;;;;;;4226986;27;20059;-63
2023/02/10 10:43:46;;;;;;;18.67;8.65;;;16.60;58.40;;;;;;4221583;27;20130;-63
2023/02/10 10:46:31;;;;;;;15.57;7.40;;;16.60;58.30;;;;;;4221907;27;20051;-63
2023/02/10 10:49:12;;;;;;;20.85;7.00;;;16.60;58.30;;;;;;4226760;27;20734;-63
2023/02/10 10:51:53;;;;;;;19.98;7.15;;;16.60;58.40;;;;;;4211060;28;20517;-64
2023/02/10 10:54:36;;;;;;;16.73;7.60;;;16.50;58.30;;;;;;4207864;28;20132;-63
2023/02/10 10:57:20;;;;;;;14.98;6.93;;;16.50;58.50;;;;;;4226464;27;20406;-63
2023/02/10 11:00:14;;;;;;;12.63;6.70;;;16.50;58.60;;;;;;4227702;28;20529;-63
2023/02/10 11:02:58;;;;;;;13.43;7.00;;;16.50;58.60;;;;;;4226945;27;20054;-63
2023/02/10 11:05:39;;;;;;;13.48;6.68;;;16.50;58.60;;;;;;4225059;28;20051;-63
2023/02/10 11:08:25;;;;;;;11.95;5.75;;;16.50;58.60;;;;;;4226191;27;20050;-63
2023/02/10 11:11:09;;;;;;;17.67;6.88;;;16.50;58.70;;;;;;4217697;27;20063;-64
2023/02/10 11:13:55;;;;;;;12.35;6.03;;;16.40;58.80;;;;;;4211659;27;20051;-64
2023/02/10 11:16:42;;;;;;;13.80;6.35;;;16.30;59.10;;;;;;4227140;27;20058;-64
2023/02/10 11:19:25;;;;;;;14.25;6.53;;;16.30;59.30;;;;;;4226532;28;20050;-64
2023/02/10 11:22:15;;;;;;;18.63;7.38;;;16.20;59.50;;;;;;4216428;28;20050;-64
2023/02/10 11:24:58;;;;;;;16.33;6.60;;;16.20;59.70;;;;;;4226152;27;20108;-64
2023/02/10 11:27:38;;;;;;;19.30;6.30;;;16.20;59.90;;;;;;4226595;27;20124;-64
2023/02/10 11:30:28;;;;;;;17.27;7.38;;;16.20;60.00;;;;;;4225090;28;20061;-64
2023/02/10 11:33:21;;;;;;;15.90;6.93;;;16.10;60.10;;;;;;4225633;28;20055;-63
2023/02/10 11:36:06;;;;;;;16.45;6.05;;;16.10;60.10;;;;;;4223162;27;20441;-63
2023/02/10 11:38:47;;;;;;;16.40;6.88;;;16.10;60.50;;;;;;4223744;28;20435;-62
2023/02/10 11:41:31;;;;;;;15.57;6.53;;;16.10;60.70;;;;;;4224619;27;20397;-63
2023/02/10 11:44:25;;;;;;;15.85;6.82;;;16.10;60.60;;;;;;4211334;28;20059;-64
2023/02/10 11:47:16;;;;;;;15.40;6.53;;;16.10;60.60;;;;;;4223214;27;20181;-63
2023/02/10 11:49:58;;;;;;;11.05;5.63;;;16.10;60.80;;;;;;4226393;28;20516;-63
2023/02/10 11:52:39;;;;;;;17.55;7.72;;;16.00;61.10;;;;;;4213697;28;20432;-63
2023/02/10 11:55:22;;;;;;;16.63;6.18;;;16.00;62.10;;;;;;4226242;27;20154;-64
2023/02/10 12:01:28;;;;;;;16.90;6.18;;;16.20;60.90;;;;;;4226575;28;20051;-64
2023/02/10 12:04:22;;;;;;;14.90;6.72;;;16.30;60.70;;;;;;4218057;27;20084;-64
2023/02/10 12:07:10;;;;;;;14.85;6.03;;;16.30;60.50;;;;;;4213249;27;20173;-65
2023/02/10 12:09:56;;;;;;;11.57;6.15;;;16.20;60.50;;;;;;4217866;28;20177;-64
2023/02/10 12:12:45;;;;;;;12.18;5.63;;;16.20;60.60;;;;;;4209085;28;20148;-65
2023/02/10 12:15:36;;;;;;;13.02;5.05;;;16.10;60.70;;;;;;4208547;28;20108;-65
2023/02/10 12:18:29;;;;;;;12.70;5.78;;;16.10;61.00;;;;;;4223036;27;20117;-65
2023/02/10 12:21:26;;;;;;;13.07;5.72;;;16.10;61.20;;;;;;4224916;27;20063;-64
2023/02/10 12:24:20;;;;;;;15.50;6.20;;;16.10;61.20;;;;;;4218187;27;20501;-64
2023/02/10 12:27:08;;;;;;;13.90;5.72;;;16.20;60.90;;;;;;4209871;28;20055;-64
2023/02/10 12:29:58;;;;;;;11.55;5.60;;;16.20;60.70;;;;;;4209008;28;20055;-64
2023/02/10 12:32:48;;;;;;;9.95;5.28;;;16.20;60.80;;;;;;4211606;28;20510;-64
2023/02/10 12:35:39;;;;;;;10.88;5.68;;;16.20;60.90;;;;;;4223905;27;20051;-64
2023/02/10 12:38:36;;;;;;;14.88;5.35;;;16.20;61.00;;;;;;4224128;28;20049;-64
2023/02/10 12:41:24;;;;;;;13.40;4.95;;;16.10;61.00;;;;;;4218046;28;20054;-65
2023/02/10 12:44:21;;;;;;;9.80;4.78;;;16.00;61.30;;;;;;4225359;27;20386;-68
2023/02/10 12:47:17;;;;;;;11.30;4.93;;;16.10;61.60;;;;;;4223294;28;20058;-65
2023/02/10 12:50:13;;;;;;;10.50;4.57;;;16.00;61.60;;;;;;4225687;27;20050;-66
2023/02/10 12:53:02;;;;;;;11.07;4.82;;;16.00;61.60;;;;;;4225949;28;20382;-65
2023/02/10 12:55:53;;;;;;;8.95;4.45;;;16.00;62.60;;;;;;4221794;28;20050;-64
2023/02/10 12:58:39;;;;;;;13.05;5.55;;;15.90;61.70;;;;;;4210837;28;20097;-64
2023/02/10 13:01:26;;;;;;;6.38;3.92;;;15.90;62.10;;;;;;4225625;28;20043;-65
2023/02/10 13:04:19;;;;;;;9.93;3.60;;;15.80;61.90;;;;;;4225806;28;20119;-65
2023/02/10 13:07:04;;;;;;;12.95;5.15;;;15.80;62.30;;;;;;4223287;28;20398;-66
2023/02/10 13:09:51;;;;;;;11.23;4.45;;;15.70;62.60;;;;;;4224490;28;20666;-66
2023/02/10 13:12:38;;;;;;;10.77;4.57;;;15.60;62.80;;;;;;4225464;28;20088;-65
2023/02/10 13:15:25;;;;;;;14.15;4.47;;;15.60;62.90;;;;;;4219360;28;20128;-65
2023/02/10 13:18:19;;;;;;;12.07;3.90;;;15.60;63.00;;;;;;4223736;27;20046;-65
2023/02/10 13:21:07;;;;;;;12.43;3.65;;;15.50;62.80;;;;;;4224674;28;20274;-67
2023/02/10 13:23:49;;;;;;;13.50;3.30;;;15.50;63.40;;;;;;4225691;28;20151;-68
2023/02/10 13:26:51;;;;;;;14.05;4.07;;;15.50;63.60;;;;;;4213017;28;20105;-67
2023/02/10 13:29:43;;;;;;;11.68;3.90;;;15.70;63.20;;;;;;4226360;28;20082;-67
2023/02/10 13:32:42;;;;;;;12.90;3.83;;;15.80;62.80;;;;;;4212057;28;20062;-67
2023/02/10 13:35:24;;;;;;;11.68;3.42;;;15.80;62.30;;;;;;4211747;28;20047;-68
2023/02/10 13:38:10;;;;;;;10.88;3.40;;;15.80;62.40;;;;;;4227093;27;20050;-67
2023/02/10 13:40:53;;;;;;;14.35;4.38;;;15.90;62.30;;;;;;4215456;27;20505;-67
2023/02/10 13:43:35;;;;;;;8.52;3.78;;;15.80;62.10;;;;;;4226883;28;20055;-68
2023/02/10 13:46:26;;;;;;;12.90;3.67;;;15.80;62.00;;;;;;4212068;28;20051;-68
2023/02/10 13:49:18;;;;;;;13.88;3.35;;;15.80;61.90;;;;;;4217783;27;20104;-67
2023/02/10 13:52:13;;;;;;;13.52;3.33;;;15.80;62.00;;;;;;4227323;28;20125;-67
2023/02/10 13:54:58;;;;;;;8.93;2.92;;;15.70;62.10;;;;;;4228099;27;20517;-67
2023/02/10 13:57:51;;;;;;;9.57;3.33;;;15.70;62.50;;;;;;4225178;27;20045;-67
2023/02/10 14:00:43;;;;;;;7.88;2.80;;;15.70;62.50;;;;;;4227408;28;20050;-67
2023/02/10 14:03:28;;;;;;;9.75;3.25;;;15.60;62.50;;;;;;4228522;27;20058;-67
2023/02/10 14:06:10;;;;;;;12.18;3.60;;;15.60;63.00;;;;;;4225126;27;20095;-67
2023/02/10 14:08:51;;;;;;;10.85;3.08;;;15.50;63.10;;;;;;4211710;28;20051;-67
2023/02/10 14:11:43;;;;;;;9.52;3.45;;;15.50;63.30;;;;;;4210736;28;20193;-67
2023/02/10 14:14:28;;;;;;;11.10;3.53;;;15.40;63.30;;;;;;4200289;28;20457;-68